Saturday, November 18, 2017, 9:34 PM GMT
Back to Local

CYYG, Charlottetown, P. E. I.

Location: , , Canada Lat: 46.283
Local Time: 9:34 PM GMT (21:34 GMT) Lon: -63.133
Time Zone: GMT Elev: 157 ft

Show me the last for .
Show Decoded

2017-11-18 21:00 METAR CYYG 182100Z 28008KT 15SM OVC017 01/M02 A2975 RMK SC8 SLP079 =
2017-11-18 20:01 METAR CYYG 182001Z 32012G18KT 15SM OVC017 01/M02 A2973 RMK SC8 SLP071 =
2017-11-18 20:00 METAR CYYG 182000Z 31013G19KT 15SM OVC017 RMK SC8 DENSITY ALT MISG =
2017-11-18 19:00 METAR CYYG 181900Z 32011G20KT 15SM -SHSN OVC018 02/M02 A2970 RMK SC8 SLP061 =
2017-11-18 18:00 METAR CYYG 181800Z 31015KT 15SM -SHSN OVC018 02/M02 A2970 RMK SC8 CVCTV CLD EMBD
                 SLP060 =
2017-11-18 17:00 METAR CYYG 181700Z 31015G23KT 15SM OVC024 02/M02 A2968 RMK SC8 SLP056 =
2017-11-18 16:00 METAR CYYG 181600Z 30012G21KT 15SM OVC019 01/M03 A2968 RMK SC8 SLP053 =
2017-11-18 15:00 METAR CYYG 181500Z 30013G23KT 15SM OVC019 00/M04 A2968 RMK SC8 SLP056 =
2017-11-18 14:00 METAR CYYG 181400Z 29020G29KT 15SM OVC019 M00/M04 A2967 RMK SC8 SLP051 =
2017-11-18 13:00 METAR CYYG 181300Z 29015G24KT 15SM OVC016 M01/M04 A2964 RMK SC8 SLP041 =
2017-11-18 12:00 METAR CYYG 181200Z 29013G24KT 15SM OVC016 M01/M04 A2961 RMK SC8 SLP031 =
2017-11-18 11:00 METAR CYYG 181100Z 28015G22KT 15SM OVC016 M01/M04 A2959 RMK SC8 SLP023 =
2017-11-18 10:00 METAR CYYG 181000Z 28015G21KT 15SM BKN018 OVC030 M00/M04 A2956 RMK SC7SC1 SLP012
                 =
2017-11-18 09:00 METAR CYYG 180900Z 30012G23KT 12SM BKN018 OVC043 M00/M03 A2953 RMK SC5SC3 SLP003
                 =
2017-11-18 08:00 METAR CYYG 180800Z 29018G30KT 10SM BKN015 OVC032 00/M03 A2951 RMK SC7SC1 SLP995
                 =
2017-11-18 07:00 METAR CYYG 180700Z 29017G30KT 8SM OVC016 00/M02 A2948 RMK SC8 SLP985 =
2017-11-18 06:12 METAR CYYG 180612Z 30020G31KT 8SM BKN015 OVC022 01/M01 A2946 RMK SC7SC1 SLP980 =
2017-11-18 06:00 METAR CYYG 180600Z 30019G27KT 8SM -SHRASN BKN010 OVC026 01/M01 A2945 RMK SC7SC1
                 SLP977 =
2017-11-18 05:00 METAR CYYG 180500Z 29017G23KT 6SM -SHRASN BKN009 OVC017 01/M00 A2942 RMK SC7SC1
                 CVCTV CLD EMBD SLP967 =
2017-11-18 04:00 METAR CYYG 180400Z 29014G22KT 6SM -SHRASN BKN008 OVC018 01/M00 A2941 RMK SC7SC1
                 CVCTV CLD EMBD SLP961 =
2017-11-18 03:00 METAR CYYG 180300Z 30015G23KT 8SM -SHRASN BKN010 OVC019 02/M00 A2937 RMK SC7SC1
                 CVCTV CLD EMBD SLP948 =
2017-11-18 02:00 METAR CYYG 180200Z 29015G24KT 8SM -SHRASN BKN010 OVC019 02/M00 A2936 RMK SC7SC1
                 CVCTV CLD EMBD SLP947 =
2017-11-18 01:54 METAR CYYG 180154Z 29015G24KT 8SM -SHRASN BKN010 OVC020 02/M00 A2936 RMK SC7SC1
                 CVCTV CLD EMBD SLP945 =
2017-11-18 01:28 METAR CYYG 180128Z 29018G26KT 8SM -SHRASN BKN014 OVC022 02/M00 A2935 RMK SC7SC1
                 CVCTV CLD EMBD SLP943 =
2017-11-18 01:15 METAR CYYG 180115Z 28015G24KT 15SM -SHRA BKN014 OVC022 02/00 A2935 RMK SC7SC1
                 CVCTV CLD EMBD SLP942 =
2017-11-18 01:11 METAR CYYG 180111Z 28015G25KT 15SM BKN014 OVC022 02/00 A2935 RMK SC7SC1 SLP941 =
2017-11-18 01:00 METAR CYYG 180100Z 28016G25KT 15SM BKN014 OVC021 03/00 A2934 RMK SC7SC1 SLP939 =
2017-11-18 00:00 METAR CYYG 180000Z 28020G32KT 15SM OVC014 03/00 A2931 RMK SC8 SLP928 =
2017-11-17 23:51 METAR CYYG 172351Z 29017G27KT 15SM OVC014 03/00 A2930 RMK SC8 SLP926 =
2017-11-17 23:00 METAR CYYG 172300Z 29017G28KT 15SM -SHRA OVC014 03/01 A2927 RMK SC8 CIG RAG
                 SLP915 =
2017-11-17 22:00 METAR CYYG 172200Z 28018G30KT 15SM -SHRA OVC014 03/01 A2925 RMK SC8 SLP907 =

Support USWX by starting your Amazon purchase here.